sensor_id;sensor_type;location;lat;lon;timestamp;pressure;altitude;pressure_sealevel;temperature;humidity
30618;BME280;17384;51.214;9.202;2023-10-31T00:00:15;96696.41;;;11.27;100.00
30618;BME280;17384;51.214;9.202;2023-10-31T00:02:41;96692.63;;;11.28;100.00
30618;BME280;17384;51.214;9.202;2023-10-31T00:05:06;96687.47;;;11.31;100.00
30618;BME280;17384;51.214;9.202;2023-10-31T00:07:32;96691.53;;;11.34;100.00
30618;BME280;17384;51.214;9.202;2023-10-31T00:09:57;96689.91;;;11.28;100.00
30618;BME280;17384;51.214;9.202;2023-10-31T00:12:23;96695.34;;;11.33;100.00
30618;BME280;17384;51.214;9.202;2023-10-31T00:14:48;96686.13;;;11.44;100.00
30618;BME280;17384;51.214;9.202;2023-10-31T00:17:13;96679.59;;;11.45;100.00
30618;BME280;17384;51.214;9.202;2023-10-31T00:19:39;96673.91;;;11.46;100.00
30618;BME280;17384;51.214;9.202;2023-10-31T00:22:04;96671.44;;;11.45;100.00
30618;BME280;17384;51.214;9.202;2023-10-31T00:24:30;96675.81;;;11.41;100.00
30618;BME280;17384;51.214;9.202;2023-10-31T00:26:57;96687.19;;;11.43;100.00
30618;BME280;17384;51.214;9.202;2023-10-31T00:29:23;96692.91;;;11.46;100.00
30618;BME280;17384;51.214;9.202;2023-10-31T00:31:48;96683.91;;;11.61;100.00
30618;BME280;17384;51.214;9.202;2023-10-31T00:34:13;96686.34;;;11.63;100.00
30618;BME280;17384;51.214;9.202;2023-10-31T00:36:39;96679.28;;;11.57;100.00
30618;BME280;17384;51.214;9.202;2023-10-31T00:39:04;96684.19;;;11.65;100.00
30618;BME280;17384;51.214;9.202;2023-10-31T00:41:30;96682.28;;;11.55;100.00
30618;BME280;17384;51.214;9.202;2023-10-31T00:43:56;96676.88;;;11.45;100.00
30618;BME280;17384;51.214;9.202;2023-10-31T00:46:21;96686.09;;;11.54;100.00
30618;BME280;17384;51.214;9.202;2023-10-31T00:48:47;96669.25;;;11.57;100.00
30618;BME280;17384;51.214;9.202;2023-10-31T00:51:13;96669.78;;;11.59;100.00
30618;BME280;17384;51.214;9.202;2023-10-31T00:53:39;96685.28;;;11.59;100.00
30618;BME280;17384;51.214;9.202;2023-10-31T00:56:04;96669.78;;;11.54;100.00
30618;BME280;17384;51.214;9.202;2023-10-31T00:58:30;96665.72;;;11.51;100.00
30618;BME280;17384;51.214;9.202;2023-10-31T01:00:56;96662.72;;;11.58;100.00
30618;BME280;17384;51.214;9.202;2023-10-31T01:03:21;96653.78;;;11.58;100.00
30618;BME280;17384;51.214;9.202;2023-10-31T01:05:46;96667.34;;;11.58;100.00
30618;BME280;17384;51.214;9.202;2023-10-31T01:08:12;96661.09;;;11.62;100.00
30618;BME280;17384;51.214;9.202;2023-10-31T01:10:37;96654.84;;;11.62;100.00
30618;BME280;17384;51.214;9.202;2023-10-31T01:13:03;96669.25;;;11.72;100.00
30618;BME280;17384;51.214;9.202;2023-10-31T01:15:28;96656.75;;;11.71;100.00
30618;BME280;17384;51.214;9.202;2023-10-31T01:17:53;96659.47;;;11.71;100.00
30618;BME280;17384;51.214;9.202;2023-10-31T01:20:19;96643.97;;;11.72;100.00
30618;BME280;17384;51.214;9.202;2023-10-31T01:22:44;96641.81;;;11.69;100.00
30618;BME280;17384;51.214;9.202;2023-10-31T01:25:10;96642.06;;;11.72;100.00
30618;BME280;17384;51.214;9.202;2023-10-31T01:27:36;96660.81;;;11.74;100.00
30618;BME280;17384;51.214;9.202;2023-10-31T01:30:01;96660.53;;;11.70;100.00
30618;BME280;17384;51.214;9.202;2023-10-31T01:32:27;96655.66;;;11.72;100.00
30618;BME280;17384;51.214;9.202;2023-10-31T01:34:52;96664.59;;;11.83;100.00
30618;BME280;17384;51.214;9.202;2023-10-31T01:37:18;96658.09;;;11.84;100.00
30618;BME280;17384;51.214;9.202;2023-10-31T01:39:45;96661.06;;;11.82;100.00
30618;BME280;17384;51.214;9.202;2023-10-31T01:42:13;96667.06;;;11.79;100.00
30618;BME280;17384;51.214;9.202;2023-10-31T01:44:40;96677.38;;;11.77;100.00
30618;BME280;17384;51.214;9.202;2023-10-31T01:47:05;96673.59;;;11.73;100.00
30618;BME280;17384;51.214;9.202;2023-10-31T01:49:31;96693.41;;;11.69;100.00
30618;BME280;17384;51.214;9.202;2023-10-31T01:51:59;96688.53;;;11.71;100.00
30618;BME280;17384;51.214;9.202;2023-10-31T01:54:25;96684.72;;;11.67;100.00
30618;BME280;17384;51.214;9.202;2023-10-31T01:56:51;96692.31;;;11.65;100.00
30618;BME280;17384;51.214;9.202;2023-10-31T01:59:21;96695.84;;;11.55;100.00
30618;BME280;17384;51.214;9.202;2023-10-31T02:01:48;96696.94;;;11.54;100.00
30618;BME280;17384;51.214;9.202;2023-10-31T02:04:14;96692.63;;;11.48;100.00
30618;BME280;17384;51.214;9.202;2023-10-31T02:06:39;96705.91;;;11.29;100.00
30618;BME280;17384;51.214;9.202;2023-10-31T02:09:06;96689.91;;;11.28;100.00
30618;BME280;17384;51.214;9.202;2023-10-31T02:11:31;96701.84;;;11.27;100.00
30618;BME280;17384;51.214;9.202;2023-10-31T02:13:57;96710.53;;;11.24;100.00
30618;BME280;17384;51.214;9.202;2023-10-31T02:16:23;96718.94;;;11.22;100.00
30618;BME280;17384;51.214;9.202;2023-10-31T02:18:48;96709.97;;;11.06;100.00
30618;BME280;17384;51.214;9.202;2023-10-31T02:21:14;96717.84;;;10.93;100.00
30618;BME280;17384;51.214;9.202;2023-10-31T02:23:40;96716.47;;;10.85;100.00
30618;BME280;17384;51.214;9.202;2023-10-31T02:26:06;96728.94;;;10.81;100.00
30618;BME280;17384;51.214;9.202;2023-10-31T02:28:31;96718.34;;;10.79;100.00
30618;BME280;17384;51.214;9.202;2023-10-31T02:30:57;96725.13;;;10.77;100.00
30618;BME280;17384;51.214;9.202;2023-10-31T02:33:22;96726.72;;;10.73;99.08
30618;BME280;17384;51.214;9.202;2023-10-31T02:35:48;96727.88;;;10.87;96.64
30618;BME280;17384;51.214;9.202;2023-10-31T02:38:13;96724.56;;;10.75;96.51
30618;BME280;17384;51.214;9.202;2023-10-31T02:40:39;96706.94;;;10.62;96.82
30618;BME280;17384;51.214;9.202;2023-10-31T02:43:04;96711.78;;;10.55;97.86
30618;BME280;17384;51.214;9.202;2023-10-31T02:45:30;96717.78;;;10.62;97.05
30618;BME280;17384;51.214;9.202;2023-10-31T02:47:55;96718.84;;;10.56;97.84
30618;BME280;17384;51.214;9.202;2023-10-31T02:50:21;96722.88;;;10.54;98.61
30618;BME280;17384;51.214;9.202;2023-10-31T02:52:46;96726.47;;;10.64;96.64
30618;BME280;17384;51.214;9.202;2023-10-31T02:55:12;96735.63;;;10.53;97.79
30618;BME280;17384;51.214;9.202;2023-10-31T02:57:38;96740.50;;;10.51;97.97
30618;BME280;17384;51.214;9.202;2023-10-31T03:00:03;96741.28;;;10.46;98.14
30618;BME280;17384;51.214;9.202;2023-10-31T03:02:29;96754.81;;;10.41;99.08
30618;BME280;17384;51.214;9.202;2023-10-31T03:04:55;96747.25;;;10.43;99.58
30618;BME280;17384;51.214;9.202;2023-10-31T03:07:21;96742.91;;;10.37;100.00
30618;BME280;17384;51.214;9.202;2023-10-31T03:09:46;96739.59;;;10.30;100.00
30618;BME280;17384;51.214;9.202;2023-10-31T03:12:12;96748.31;;;10.37;100.00
30618;BME280;17384;51.214;9.202;2023-10-31T03:14:37;96731.44;;;10.25;100.00
30618;BME280;17384;51.214;9.202;2023-10-31T03:17:03;96736.78;;;10.10;100.00
30618;BME280;17384;51.214;9.202;2023-10-31T03:19:28;96737.84;;;10.14;100.00
30618;BME280;17384;51.214;9.202;2023-10-31T03:21:53;96741.94;;;10.11;99.54
30618;BME280;17384;51.214;9.202;2023-10-31T03:24:19;96750.03;;;10.06;99.37
30618;BME280;17384;51.214;9.202;2023-10-31T03:26:44;96762.16;;;9.99;99.43
30618;BME280;17384;51.214;9.202;2023-10-31T03:29:10;96768.69;;;10.03;99.16
30618;BME280;17384;51.214;9.202;2023-10-31T03:31:35;96776.03;;;10.07;98.66
30618;BME280;17384;51.214;9.202;2023-10-31T03:34:00;96788.19;;;10.00;98.42
30618;BME280;17384;51.214;9.202;2023-10-31T03:36:26;96783.88;;;10.04;98.68
30618;BME280;17384;51.214;9.202;2023-10-31T03:38:51;96803.88;;;9.98;99.93
30618;BME280;17384;51.214;9.202;2023-10-31T03:41:17;96804.44;;;10.00;99.72
30618;BME280;17384;51.214;9.202;2023-10-31T03:43:42;96807.22;;;10.10;98.31
30618;BME280;17384;51.214;9.202;2023-10-31T03:46:08;96808.84;;;10.11;98.74
30618;BME280;17384;51.214;9.202;2023-10-31T03:48:33;96802.69;;;10.21;98.57
30618;BME280;17384;51.214;9.202;2023-10-31T03:50:58;96817.31;;;10.20;97.97
30618;BME280;17384;51.214;9.202;2023-10-31T03:53:24;96807.28;;;10.20;97.04
30618;BME280;17384;51.214;9.202;2023-10-31T03:55:49;96816.44;;;10.14;98.28
30618;BME280;17384;51.214;9.202;2023-10-31T03:58:15;96813.72;;;10.14;98.13
30618;BME280;17384;51.214;9.202;2023-10-31T04:00:40;96826.75;;;10.17;99.48
30618;BME280;17384;51.214;9.202;2023-10-31T04:03:08;96836.75;;;10.11;100.00
30618;BME280;17384;51.214;9.202;2023-10-31T04:05:34;96822.06;;;10.02;100.00
30618;BME280;17384;51.214;9.202;2023-10-31T04:07:59;96833.16;;;10.01;100.00
30618;BME280;17384;51.214;9.202;2023-10-31T04:10:25;96827.78;;;10.06;100.00
30618;BME280;17384;51.214;9.202;2023-10-31T04:12:50;96830.53;;;10.11;100.00
30618;BME280;17384;51.214;9.202;2023-10-31T04:15:16;96827.53;;;10.07;100.00
30618;BME280;17384;51.214;9.202;2023-10-31T04:17:41;96822.22;;;9.91;100.00
30618;BME280;17384;51.214;9.202;2023-10-31T04:20:07;96836.03;;;9.84;100.00
30618;BME280;17384;51.214;9.202;2023-10-31T04:22:33;96824.94;;;9.91;99.41
30618;BME280;17384;51.214;9.202;2023-10-31T04:24:58;96855.50;;;9.81;99.45
30618;BME280;17384;51.214;9.202;2023-10-31T04:27:23;96828.66;;;9.79;98.92
30618;BME280;17384;51.214;9.202;2023-10-31T04:29:49;96849.22;;;9.75;98.99
30618;BME280;17384;51.214;9.202;2023-10-31T04:32:14;96856.25;;;9.76;99.79
30618;BME280;17384;51.214;9.202;2023-10-31T04:34:40;96868.41;;;9.74;99.06
30618;BME280;17384;51.214;9.202;2023-10-31T04:37:05;96860.66;;;9.88;98.55
30618;BME280;17384;51.214;9.202;2023-10-31T04:39:31;96861.47;;;9.83;97.84
30618;BME280;17384;51.214;9.202;2023-10-31T04:41:56;96860.50;;;9.67;97.36
30618;BME280;17384;51.214;9.202;2023-10-31T04:44:22;96869.34;;;9.84;96.71
30618;BME280;17384;51.214;9.202;2023-10-31T04:46:47;96860.66;;;9.82;96.11
30618;BME280;17384;51.214;9.202;2023-10-31T04:49:12;96861.16;;;9.79;95.87
30618;BME280;17384;51.214;9.202;2023-10-31T04:51:38;96874.66;;;9.74;95.76
30618;BME280;17384;51.214;9.202;2023-10-31T04:54:04;96872.31;;;9.83;96.03
30618;BME280;17384;51.214;9.202;2023-10-31T04:56:30;96875.63;;;9.63;97.42
30618;BME280;17384;51.214;9.202;2023-10-31T04:58:55;96872.59;;;9.60;97.01
30618;BME280;17384;51.214;9.202;2023-10-31T05:01:21;96879.19;;;9.69;95.94
30618;BME280;17384;51.214;9.202;2023-10-31T05:03:46;96881.97;;;9.74;95.67
30618;BME280;17384;51.214;9.202;2023-10-31T05:06:12;96879.25;;;9.74;95.52
30618;BME280;17384;51.214;9.202;2023-10-31T05:08:37;96885.44;;;9.69;96.29
30618;BME280;17384;51.214;9.202;2023-10-31T05:11:03;96883.28;;;9.71;96.73
30618;BME280;17384;51.214;9.202;2023-10-31T05:13:29;96883.78;;;9.68;96.53
30618;BME280;17384;51.214;9.202;2023-10-31T05:15:54;96881.53;;;9.60;96.96
30618;BME280;17384;51.214;9.202;2023-10-31T05:18:20;96879.88;;;9.54;97.10
30618;BME280;17384;51.214;9.202;2023-10-31T05:20:45;96889.47;;;9.40;98.17
30618;BME280;17384;51.214;9.202;2023-10-31T05:23:11;96887.69;;;9.24;99.46
30618;BME280;17384;51.214;9.202;2023-10-31T05:25:36;96902.34;;;9.28;99.09
30618;BME280;17384;51.214;9.202;2023-10-31T05:28:03;96900.81;;;9.37;98.35
30618;BME280;17384;51.214;9.202;2023-10-31T05:30:28;96893.66;;;9.26;98.37
30618;BME280;17384;51.214;9.202;2023-10-31T05:32:53;96898.03;;;9.32;98.68
30618;BME280;17384;51.214;9.202;2023-10-31T05:35:21;96906.94;;;9.27;98.71
30618;BME280;17384;51.214;9.202;2023-10-31T05:37:46;96899.06;;;9.26;99.32
30618;BME280;17384;51.214;9.202;2023-10-31T05:40:12;96908.75;;;9.22;98.96
30618;BME280;17384;51.214;9.202;2023-10-31T05:42:38;96909.38;;;9.07;100.00
30618;BME280;17384;51.214;9.202;2023-10-31T05:45:05;96917.94;;;9.21;99.64
30618;BME280;17384;51.214;9.202;2023-10-31T05:47:30;96914.28;;;9.10;99.96
30618;BME280;17384;51.214;9.202;2023-10-31T05:49:56;96926.38;;;9.24;100.00
30618;BME280;17384;51.214;9.202;2023-10-31T05:52:22;96918.63;;;9.11;100.00
30618;BME280;17384;51.214;9.202;2023-10-31T05:54:48;96920.03;;;9.13;99.80
30618;BME280;17384;51.214;9.202;2023-10-31T05:57:13;96920.41;;;9.22;99.46
30618;BME280;17384;51.214;9.202;2023-10-31T05:59:38;96933.38;;;9.20;99.53
30618;BME280;17384;51.214;9.202;2023-10-31T06:02:05;96922.53;;;9.20;100.00
30618;BME280;17384;51.214;9.202;2023-10-31T06:04:30;96939.91;;;9.24;100.00
30618;BME280;17384;51.214;9.202;2023-10-31T06:06:56;96934.69;;;9.18;100.00
30618;BME280;17384;51.214;9.202;2023-10-31T06:09:21;96940.00;;;9.34;100.00
30618;BME280;17384;51.214;9.202;2023-10-31T06:11:47;96933.75;;;9.29;100.00
30618;BME280;17384;51.214;9.202;2023-10-31T06:14:13;96933.28;;;9.37;100.00
30618;BME280;17384;51.214;9.202;2023-10-31T06:16:41;96918.00;;;9.26;100.00
30618;BME280;17384;51.214;9.202;2023-10-31T06:19:07;96925.50;;;9.19;100.00
30618;BME280;17384;51.214;9.202;2023-10-31T06:21:32;96933.53;;;9.13;100.00
30618;BME280;17384;51.214;9.202;2023-10-31T06:23:58;96955.19;;;9.13;100.00
30618;BME280;17384;51.214;9.202;2023-10-31T06:26:23;96949.53;;;9.15;100.00
30618;BME280;17384;51.214;9.202;2023-10-31T06:28:49;96947.13;;;9.19;100.00
30618;BME280;17384;51.214;9.202;2023-10-31T06:31:14;96951.72;;;9.18;100.00
30618;BME280;17384;51.214;9.202;2023-10-31T06:33:40;96954.19;;;9.20;100.00
30618;BME280;17384;51.214;9.202;2023-10-31T06:36:06;96956.16;;;9.02;100.00
30618;BME280;17384;51.214;9.202;2023-10-31T06:38:32;96948.53;;;8.99;100.00
30618;BME280;17384;51.214;9.202;2023-10-31T06:40:57;96961.97;;;8.94;100.00
30618;BME280;17384;51.214;9.202;2023-10-31T06:43:24;96957.41;;;8.95;100.00
30618;BME280;17384;51.214;9.202;2023-10-31T06:45:49;96960.34;;;8.93;100.00
30618;BME280;17384;51.214;9.202;2023-10-31T06:48:15;96973.06;;;8.93;100.00
30618;BME280;17384;51.214;9.202;2023-10-31T06:50:40;96965.75;;;8.93;100.00
30618;BME280;17384;51.214;9.202;2023-10-31T06:53:05;96966.31;;;8.95;100.00
30618;BME280;17384;51.214;9.202;2023-10-31T06:55:31;96972.81;;;8.94;100.00
30618;BME280;17384;51.214;9.202;2023-10-31T06:57:56;96972.81;;;8.94;100.00
30618;BME280;17384;51.214;9.202;2023-10-31T07:00:22;96971.66;;;8.90;100.00
30618;BME280;17384;51.214;9.202;2023-10-31T07:02:48;96980.19;;;8.82;100.00
30618;BME280;17384;51.214;9.202;2023-10-31T07:05:13;96985.09;;;8.85;100.00
30618;BME280;17384;51.214;9.202;2023-10-31T07:07:40;96979.69;;;8.85;100.00
30618;BME280;17384;51.214;9.202;2023-10-31T07:10:06;96995.91;;;8.85;100.00
30618;BME280;17384;51.214;9.202;2023-10-31T07:12:32;96998.84;;;9.00;100.00
30618;BME280;17384;51.214;9.202;2023-10-31T07:14:58;96997.25;;;9.04;100.00
30618;BME280;17384;51.214;9.202;2023-10-31T07:17:24;96987.41;;;9.15;100.00
30618;BME280;17384;51.214;9.202;2023-10-31T07:19:50;96992.38;;;9.23;100.00
30618;BME280;17384;51.214;9.202;2023-10-31T07:22:16;97007.31;;;9.26;100.00
30618;BME280;17384;51.214;9.202;2023-10-31T07:24:42;97001.41;;;9.29;100.00
30618;BME280;17384;51.214;9.202;2023-10-31T07:27:09;96991.00;;;9.42;100.00
30618;BME280;17384;51.214;9.202;2023-10-31T07:29:34;97003.84;;;9.52;99.89
30618;BME280;17384;51.214;9.202;2023-10-31T07:32:00;97003.34;;;9.55;99.34
30618;BME280;17384;51.214;9.202;2023-10-31T07:34:26;97006.22;;;9.70;99.51
30618;BME280;17384;51.214;9.202;2023-10-31T07:36:52;97002.94;;;9.68;99.01
30618;BME280;17384;51.214;9.202;2023-10-31T07:39:18;97005.63;;;9.68;99.67
30618;BME280;17384;51.214;9.202;2023-10-31T07:41:45;97021.06;;;9.68;100.00
30618;BME280;17384;51.214;9.202;2023-10-31T07:44:11;97005.75;;;9.78;99.21
30618;BME280;17384;51.214;9.202;2023-10-31T07:46:36;97028.59;;;9.88;98.90
30618;BME280;17384;51.214;9.202;2023-10-31T07:49:02;97021.59;;;9.92;97.54
30618;BME280;17384;51.214;9.202;2023-10-31T07:51:27;97024.31;;;9.92;98.79
30618;BME280;17384;51.214;9.202;2023-10-31T07:53:53;97015.09;;;9.93;98.75
30618;BME280;17384;51.214;9.202;2023-10-31T07:56:19;97020.28;;;9.94;98.98
30618;BME280;17384;51.214;9.202;2023-10-31T07:58:49;97032.25;;;9.98;99.70
30618;BME280;17384;51.214;9.202;2023-10-31T08:01:17;97025.44;;;9.96;98.77
30618;BME280;17384;51.214;9.202;2023-10-31T08:03:43;97033.56;;;9.96;99.10
30618;BME280;17384;51.214;9.202;2023-10-31T08:06:08;97024.72;;;10.05;98.44
30618;BME280;17384;51.214;9.202;2023-10-31T08:08:34;97031.22;;;10.04;98.37
30618;BME280;17384;51.214;9.202;2023-10-31T08:10:59;97036.31;;;10.01;98.27
30618;BME280;17384;51.214;9.202;2023-10-31T08:13:25;97046.41;;;10.05;98.32
30618;BME280;17384;51.214;9.202;2023-10-31T08:15:50;97040.63;;;9.97;98.40
30618;BME280;17384;51.214;9.202;2023-10-31T08:18:16;97040.94;;;10.00;98.11
30618;BME280;17384;51.214;9.202;2023-10-31T08:20:41;97036.63;;;10.04;96.91
30618;BME280;17384;51.214;9.202;2023-10-31T08:23:08;97042.88;;;10.05;96.96
30618;BME280;17384;51.214;9.202;2023-10-31T08:25:34;97049.44;;;10.09;96.79
30618;BME280;17384;51.214;9.202;2023-10-31T08:27:59;97038.28;;;10.05;96.92
30618;BME280;17384;51.214;9.202;2023-10-31T08:30:25;97066.25;;;10.11;96.66
30618;BME280;17384;51.214;9.202;2023-10-31T08:32:50;97067.06;;;10.11;97.38
30618;BME280;17384;51.214;9.202;2023-10-31T08:35:16;97069.47;;;10.08;96.70
30618;BME280;17384;51.214;9.202;2023-10-31T08:37:41;97076.78;;;10.07;97.12
30618;BME280;17384;51.214;9.202;2023-10-31T08:40:07;97085.16;;;10.06;97.21
30618;BME280;17384;51.214;9.202;2023-10-31T08:42:33;97084.03;;;10.02;96.89
30618;BME280;17384;51.214;9.202;2023-10-31T08:44:58;97091.31;;;10.01;97.38
30618;BME280;17384;51.214;9.202;2023-10-31T08:47:24;97102.66;;;9.98;98.20
30618;BME280;17384;51.214;9.202;2023-10-31T08:49:50;97116.22;;;9.76;100.00
30618;BME280;17384;51.214;9.202;2023-10-31T08:52:19;97121.16;;;9.79;100.00
30618;BME280;17384;51.214;9.202;2023-10-31T08:54:44;97124.34;;;9.76;100.00
30618;BME280;17384;51.214;9.202;2023-10-31T08:57:09;97124.03;;;9.73;100.00
30618;BME280;17384;51.214;9.202;2023-10-31T08:59:35;97131.47;;;9.82;100.00
30618;BME280;17384;51.214;9.202;2023-10-31T09:02:01;97125.97;;;9.99;100.00
30618;BME280;17384;51.214;9.202;2023-10-31T09:04:26;97131.31;;;10.16;100.00
30618;BME280;17384;51.214;9.202;2023-10-31T09:06:52;97123.41;;;10.31;99.02
30618;BME280;17384;51.214;9.202;2023-10-31T09:09:17;97146.81;;;10.42;98.18
30618;BME280;17384;51.214;9.202;2023-10-31T09:11:43;97132.25;;;10.48;96.26
30618;BME280;17384;51.214;9.202;2023-10-31T09:14:09;97141.63;;;10.41;96.27
30618;BME280;17384;51.214;9.202;2023-10-31T09:16:34;97150.91;;;10.45;95.25
30618;BME280;17384;51.214;9.202;2023-10-31T09:19:00;97159.81;;;10.40;95.29
30618;BME280;17384;51.214;9.202;2023-10-31T09:21:25;97164.59;;;10.55;94.23
30618;BME280;17384;51.214;9.202;2023-10-31T09:23:51;97170.25;;;10.54;93.47
30618;BME280;17384;51.214;9.202;2023-10-31T09:26:16;97168.31;;;10.49;93.83
30618;BME280;17384;51.214;9.202;2023-10-31T09:28:43;97176.63;;;10.42;93.09
30618;BME280;17384;51.214;9.202;2023-10-31T09:31:18;97179.16;;;10.49;92.41
30618;BME280;17384;51.214;9.202;2023-10-31T09:33:44;97187.84;;;10.51;91.14
30618;BME280;17384;51.214;9.202;2023-10-31T09:36:09;97191.44;;;10.57;91.46
30618;BME280;17384;51.214;9.202;2023-10-31T09:38:35;97194.22;;;10.62;91.49
30618;BME280;17384;51.214;9.202;2023-10-31T09:41:01;97207.22;;;10.60;92.31
30618;BME280;17384;51.214;9.202;2023-10-31T09:43:27;97198.06;;;10.66;92.12
30618;BME280;17384;51.214;9.202;2023-10-31T09:45:52;97204.66;;;10.75;92.98
30618;BME280;17384;51.214;9.202;2023-10-31T09:48:19;97207.03;;;10.71;90.53
30618;BME280;17384;51.214;9.202;2023-10-31T09:50:46;97201.38;;;10.73;92.90
30618;BME280;17384;51.214;9.202;2023-10-31T09:53:14;97215.16;;;10.66;92.27
30618;BME280;17384;51.214;9.202;2023-10-31T09:55:40;97230.63;;;10.71;92.46
30618;BME280;17384;51.214;9.202;2023-10-31T09:58:06;97224.06;;;10.67;90.57
30618;BME280;17384;51.214;9.202;2023-10-31T10:00:32;97230.84;;;10.64;91.55
30618;BME280;17384;51.214;9.202;2023-10-31T10:02:58;97238.94;;;10.59;89.77
30618;BME280;17384;51.214;9.202;2023-10-31T10:05:25;97246.75;;;10.56;90.53
30618;BME280;17384;51.214;9.202;2023-10-31T10:07:50;97234.81;;;10.57;90.50
30618;BME280;17384;51.214;9.202;2023-10-31T10:10:16;97246.59;;;10.67;90.04
30618;BME280;17384;51.214;9.202;2023-10-31T10:12:42;97238.50;;;10.72;90.99
30618;BME280;17384;51.214;9.202;2023-10-31T10:15:10;97248.66;;;10.82;90.01
30618;BME280;17384;51.214;9.202;2023-10-31T10:17:37;97239.34;;;10.73;91.65
30618;BME280;17384;51.214;9.202;2023-10-31T10:20:09;97240.28;;;10.83;90.15
30618;BME280;17384;51.214;9.202;2023-10-31T10:22:39;97251.94;;;10.84;90.07
30618;BME280;17384;51.214;9.202;2023-10-31T10:25:14;97249.53;;;10.88;89.82
30618;BME280;17384;51.214;9.202;2023-10-31T10:27:46;97246.28;;;10.85;90.78
30618;BME280;17384;51.214;9.202;2023-10-31T10:30:14;97260.09;;;10.84;91.28
30618;BME280;17384;51.214;9.202;2023-10-31T10:32:39;97250.63;;;10.87;90.39
30618;BME280;17384;51.214;9.202;2023-10-31T10:35:07;97254.72;;;10.89;89.63
30618;BME280;17384;51.214;9.202;2023-10-31T10:37:37;97275.84;;;10.87;89.49
30618;BME280;17384;51.214;9.202;2023-10-31T10:40:05;97259.91;;;10.96;90.26
30618;BME280;17384;51.214;9.202;2023-10-31T10:42:33;97267.25;;;10.95;90.60
30618;BME280;17384;51.214;9.202;2023-10-31T10:45:03;97265.56;;;10.89;90.46
30618;BME280;17384;51.214;9.202;2023-10-31T10:47:31;97261.78;;;10.90;88.12
30618;BME280;17384;51.214;9.202;2023-10-31T10:49:59;97261.22;;;10.88;88.54
30618;BME280;17384;51.214;9.202;2023-10-31T10:52:38;97269.44;;;10.98;88.57
30618;BME280;17384;51.214;9.202;2023-10-31T10:55:12;97271.09;;;10.99;87.70
30618;BME280;17384;51.214;9.202;2023-10-31T10:57:51;97255.75;;;11.10;88.31
30618;BME280;17384;51.214;9.202;2023-10-31T11:00:20;97261.97;;;11.10;88.11
30618;BME280;17384;51.214;9.202;2023-10-31T11:02:51;97269.09;;;11.16;88.55
30618;BME280;17384;51.214;9.202;2023-10-31T11:05:17;97273.22;;;11.24;87.77
30618;BME280;17384;51.214;9.202;2023-10-31T11:07:44;97266.41;;;11.16;88.16
30618;BME280;17384;51.214;9.202;2023-10-31T11:10:10;97273.47;;;11.17;88.23
30618;BME280;17384;51.214;9.202;2023-10-31T11:12:37;97275.50;;;11.05;90.15
30618;BME280;17384;51.214;9.202;2023-10-31T11:15:13;97271.84;;;11.22;90.23
30618;BME280;17384;51.214;9.202;2023-10-31T11:17:44;97274.53;;;11.16;91.36
30618;BME280;17384;51.214;9.202;2023-10-31T11:20:13;97270.78;;;11.23;89.68
30618;BME280;17384;51.214;9.202;2023-10-31T11:22:44;97269.50;;;11.03;90.51
30618;BME280;17384;51.214;9.202;2023-10-31T11:25:12;97278.09;;;10.95;90.40
30618;BME280;17384;51.214;9.202;2023-10-31T11:27:38;97275.56;;;11.10;91.66
30618;BME280;17384;51.214;9.202;2023-10-31T11:30:21;97281.56;;;11.12;89.34
30618;BME280;17384;51.214;9.202;2023-10-31T11:32:54;97279.72;;;11.18;90.49
30618;BME280;17384;51.214;9.202;2023-10-31T11:35:21;97288.09;;;11.16;88.68
30618;BME280;17384;51.214;9.202;2023-10-31T11:38:03;97278.59;;;11.14;88.13
30618;BME280;17384;51.214;9.202;2023-10-31T11:40:30;97273.22;;;11.24;87.89
30618;BME280;17384;51.214;9.202;2023-10-31T11:43:02;97287.28;;;11.43;87.37
30618;BME280;17384;51.214;9.202;2023-10-31T11:47:55;97281.78;;;12.02;84.54
30618;BME280;17384;51.214;9.202;2023-10-31T11:50:21;97278.13;;;12.28;83.81
30618;BME280;17384;51.214;9.202;2023-10-31T11:53:06;97276.50;;;12.27;83.60
30618;BME280;17384;51.214;9.202;2023-10-31T11:55:36;97280.81;;;12.23;82.87
30618;BME280;17384;51.214;9.202;2023-10-31T11:58:22;97293.97;;;12.41;82.68
30618;BME280;17384;51.214;9.202;2023-10-31T12:00:49;97285.91;;;12.57;80.77
30618;BME280;17384;51.214;9.202;2023-10-31T12:03:24;97289.97;;;12.59;81.07
30618;BME280;17384;51.214;9.202;2023-10-31T12:05:59;97303.56;;;12.54;80.68
30618;BME280;17384;51.214;9.202;2023-10-31T12:08:34;97297.97;;;12.91;80.66
30618;BME280;17384;51.214;9.202;2023-10-31T12:11:11;97292.00;;;12.84;80.07
30618;BME280;17384;51.214;9.202;2023-10-31T12:13:39;97300.69;;;12.86;80.76
30618;BME280;17384;51.214;9.202;2023-10-31T12:16:06;97307.22;;;12.90;80.50
30618;BME280;17384;51.214;9.202;2023-10-31T12:18:34;97303.97;;;12.93;79.73
30618;BME280;17384;51.214;9.202;2023-10-31T12:21:00;97300.41;;;12.82;80.81
30618;BME280;17384;51.214;9.202;2023-10-31T12:23:26;97315.94;;;12.92;80.95
30618;BME280;17384;51.214;9.202;2023-10-31T12:25:51;97313.66;;;12.64;80.67
30618;BME280;17384;51.214;9.202;2023-10-31T12:28:21;97320.59;;;12.39;82.04
30618;BME280;17384;51.214;9.202;2023-10-31T12:30:49;97318.94;;;12.28;83.63
30618;BME280;17384;51.214;9.202;2023-10-31T12:33:16;97319.22;;;12.37;80.64
30618;BME280;17384;51.214;9.202;2023-10-31T12:35:43;97324.97;;;12.40;82.14
30618;BME280;17384;51.214;9.202;2023-10-31T12:38:12;97322.19;;;12.82;81.11
30618;BME280;17384;51.214;9.202;2023-10-31T12:40:43;97325.28;;;13.06;81.80
30618;BME280;17384;51.214;9.202;2023-10-31T12:43:09;97334.06;;;13.29;80.07
30618;BME280;17384;51.214;9.202;2023-10-31T12:45:35;97333.91;;;12.88;80.67
30618;BME280;17384;51.214;9.202;2023-10-31T12:48:08;97341.50;;;12.86;80.25
30618;BME280;17384;51.214;9.202;2023-10-31T12:50:35;97345.84;;;12.77;79.88
30618;BME280;17384;51.214;9.202;2023-10-31T12:53:03;97331.09;;;12.68;81.65
30618;BME280;17384;51.214;9.202;2023-10-31T12:55:30;97338.03;;;12.43;80.94
30618;BME280;17384;51.214;9.202;2023-10-31T12:57:57;97340.97;;;12.37;82.65